Time;durP1;ratioP1;P1;durP2;ratioP2;P2;SDS_P1;SDS_P2;PMS_P1;PMS_P2;Temp;Humidity;BMP_temperature;BMP_pressure;BME280_temperature;BME280_humidity;BME280_pressure;Samples;Min_cycle;Max_cycle;Signal;HPM_P1;HPM_P2
2023/01/06 00:01:10;;;;;;;;;;;;;;;18.68;48.10;101550.34;5151353;27;19927;-56
2023/01/06 00:03:35;;;;;;;;;;;;;;;18.67;47.93;101556.97;5152223;27;19923;-56
2023/01/06 00:06:01;;;;;;;;;;;;;;;18.68;47.91;101553.13;5133352;27;19934;-56
2023/01/06 00:08:27;;;;;;;;;;;;;;;18.67;47.96;101549.53;5133586;27;19930;-55
2023/01/06 00:10:52;;;;;;;;;;;;;;;18.68;47.87;101547.59;5151455;27;19930;-56
2023/01/06 00:13:18;;;;;;;;;;;;;;;18.68;47.89;101548.44;5151553;27;20283;-56
2023/01/06 00:15:44;;;;;;;;;;;;;;;18.68;48.20;101545.66;5133050;27;19923;-56
2023/01/06 00:18:09;;;;;;;;;;;;;;;18.68;48.08;101550.34;5151952;27;19923;-56
2023/01/06 00:20:35;;;;;;;;;;;;;;;18.67;48.17;101546.78;5151299;27;19923;-56
2023/01/06 00:23:00;;;;;;;;;;;;;;;18.68;48.00;101551.19;5151892;27;19923;-56
2023/01/06 00:25:26;;;;;;;;;;;;;;;18.68;48.11;101548.44;5148155;27;20275;-56
2023/01/06 00:27:51;;;;;;;;;;;;;;;18.68;48.03;101542.09;5131196;27;19928;-56
2023/01/06 00:30:17;;;;;;;;;;;;;;;18.67;47.82;101538.50;5151720;27;19927;-56
2023/01/06 00:32:43;;;;;;;;;;;;;;;18.68;48.11;101539.31;5145251;27;19923;-56
2023/01/06 00:35:08;;;;;;;;;;;;;;;18.68;48.24;101534.63;5131587;27;19923;-56
2023/01/06 00:37:34;;;;;;;;;;;;;;;18.68;47.98;101537.41;5151523;27;19950;-56
2023/01/06 00:39:59;;;;;;;;;;;;;;;18.66;47.93;101527.72;5151779;27;19922;-56
2023/01/06 00:42:25;;;;;;;;;;;;;;;18.68;48.21;101528.28;5151457;27;19923;-56
2023/01/06 00:44:51;;;;;;;;;;;;;;;18.67;48.10;101524.69;5151406;27;19931;-56
2023/01/06 00:47:16;;;;;;;;;;;;;;;18.68;47.98;101509.81;5150981;27;19927;-56
2023/01/06 00:49:42;;;;;;;;;;;;;;;18.68;48.06;101512.56;5133030;27;19930;-56
2023/01/06 00:52:07;;;;;;;;;;;;;;;18.68;48.12;101508.97;5151293;27;19930;-56
2023/01/06 00:54:35;;;;;;;;;;;;;;;18.68;48.18;101508.97;5150801;27;19934;-56
2023/01/06 00:57:01;;;;;;;;;;;;;;;18.68;47.92;101515.31;5151300;27;19965;-56
2023/01/06 00:59:26;;;;;;;;;;;;;;;18.68;47.95;101507.03;5132340;27;19986;-56
2023/01/06 01:01:53;;;;;;;;;;;;;;;18.68;48.17;101507.03;5151125;27;19934;-56
2023/01/06 01:04:19;;;;;;;;;;;;;;;18.68;47.93;101508.97;5151197;27;20256;-56
2023/01/06 01:06:44;;;;;;;;;;;;;;;18.67;47.90;101505.38;5151264;27;20427;-56
2023/01/06 01:09:12;;;;;;;;;;;;;;;18.67;48.01;101502.63;5151478;27;19930;-56
2023/01/06 01:12:09;;;;;;;;;;;;;;;18.67;47.91;101488.00;5132634;27;19930;-56
2023/01/06 01:14:23;;;;;;;;;;;;;;;18.67;48.04;101497.13;5135607;27;19968;-56
2023/01/06 01:16:49;;;;;;;;;;;;;;;18.68;47.84;101504.28;5132369;27;20303;-56
2023/01/06 01:19:15;;;;;;;;;;;;;;;18.68;47.83;101497.94;5132556;27;19934;-56
2023/01/06 01:21:40;;;;;;;;;;;;;;;18.67;48.20;101502.63;5149938;27;19923;-56
2023/01/06 01:24:06;;;;;;;;;;;;;;;18.67;47.92;101508.16;5153192;27;20377;-56
2023/01/06 01:26:32;;;;;;;;;;;;;;;18.67;48.19;101499.88;5136055;27;19930;-56
2023/01/06 01:28:57;;;;;;;;;;;;;;;18.67;47.93;101502.63;5154442;27;20271;-56
2023/01/06 01:31:23;;;;;;;;;;;;;;;18.68;47.98;101507.03;5154694;27;19934;-56
2023/01/06 01:33:48;;;;;;;;;;;;;;;18.68;48.23;101507.03;5138795;27;20371;-56
2023/01/06 01:36:14;;;;;;;;;;;;;;;18.68;48.04;101508.97;5135682;27;19970;-54
2023/01/06 01:38:40;;;;;;;;;;;;;;;18.68;48.25;101511.72;5136018;27;19923;-56
2023/01/06 01:41:06;;;;;;;;;;;;;;;18.68;48.27;101508.97;5154491;27;20382;-56
2023/01/06 01:43:51;;;;;;;;;;;;;;;18.67;47.90;101508.16;5154545;27;19927;-56
2023/01/06 01:46:20;;;;;;;;;;;;;;;18.67;48.18;101510.91;5138721;27;20374;-56
2023/01/06 01:48:46;;;;;;;;;;;;;;;18.68;48.28;101500.69;5135776;27;20010;-56
2023/01/06 01:51:13;;;;;;;;;;;;;;;18.68;47.94;101500.69;5154487;27;20268;-56
2023/01/06 01:53:40;;;;;;;;;;;;;;;18.68;47.90;101503.47;5134649;27;19923;-56
2023/01/06 01:56:06;;;;;;;;;;;;;;;18.68;47.98;101500.69;5154297;27;19964;-56
2023/01/06 01:58:35;;;;;;;;;;;;;;;18.68;48.15;101501.53;5154006;27;19967;-56
2023/01/06 02:01:00;;;;;;;;;;;;;;;18.68;48.08;101495.19;5154031;27;19930;-55
2023/01/06 02:03:26;;;;;;;;;;;;;;;18.69;47.98;101499.59;5153817;27;19927;-58
2023/01/06 02:05:53;;;;;;;;;;;;;;;18.68;48.08;101495.19;5153595;27;19927;-58
2023/01/06 02:08:35;;;;;;;;;;;;;;;18.68;48.00;101487.72;5154119;27;19930;-59
2023/01/06 02:11:01;;;;;;;;;;;;;;;18.68;48.26;101490.50;5154156;27;19931;-59
2023/01/06 02:13:26;;;;;;;;;;;;;;;18.68;48.01;101493.25;5135668;27;20278;-59
2023/01/06 02:15:53;;;;;;;;;;;;;;;18.68;48.05;101486.91;5153873;27;20190;-59
2023/01/06 02:18:25;;;;;;;;;;;;;;;18.68;47.97;101482.22;5153742;27;20390;-59
2023/01/06 02:20:55;;;;;;;;;;;;;;;18.67;48.01;101476.97;5153898;27;19930;-59
2023/01/06 02:26:05;;;;;;;;;;;;;;;18.68;47.93;101482.22;5188893;27;19925;-56
2023/01/06 02:28:50;;;;;;;;;;;;;;;18.67;47.96;101480.56;5164657;27;19975;-56
2023/01/06 02:31:34;;;;;;;;;;;;;;;18.68;48.22;101478.63;5153198;27;19950;-56
2023/01/06 02:34:20;;;;;;;;;;;;;;;18.68;48.00;101478.63;5185969;27;19950;-56
2023/01/06 02:37:02;;;;;;;;;;;;;;;18.69;48.32;101474.75;5172924;27;20377;-56
2023/01/06 02:39:33;;;;;;;;;;;;;;;18.68;48.00;101460.16;5189916;27;19923;-56
2023/01/06 02:42:19;;;;;;;;;;;;;;;18.68;47.93;101462.91;5170902;27;19926;-56
2023/01/06 02:45:04;;;;;;;;;;;;;;;18.68;48.24;101457.38;5173587;27;19969;-56
2023/01/06 02:47:32;;;;;;;;;;;;;;;18.69;47.92;101444.41;5173916;27;19923;-56
2023/01/06 02:50:00;;;;;;;;;;;;;;;18.68;48.24;101449.09;5189720;27;19968;-56
2023/01/06 02:52:30;;;;;;;;;;;;;;;18.68;47.93;101448.28;5189852;27;19922;-56
2023/01/06 02:54:58;;;;;;;;;;;;;;;18.69;47.96;101447.19;5189165;27;19977;-56
2023/01/06 02:57:29;;;;;;;;;;;;;;;18.68;47.96;101440.00;5170402;27;19975;-56
2023/01/06 03:00:14;;;;;;;;;;;;;;;18.68;48.26;101434.50;5170215;27;19963;-56
2023/01/06 03:02:40;;;;;;;;;;;;;;;18.68;48.25;101440.84;5147008;27;20148;-56
2023/01/06 03:05:06;;;;;;;;;;;;;;;18.68;48.02;101435.31;5146967;27;19946;-56
2023/01/06 03:07:32;;;;;;;;;;;;;;;18.68;48.07;101438.06;5168141;27;19930;-56
2023/01/06 03:09:57;;;;;;;;;;;;;;;18.68;47.95;101440.00;5168383;27;19927;-56
2023/01/06 03:12:26;;;;;;;;;;;;;;;18.68;48.27;101437.25;5167298;27;19934;-56
2023/01/06 03:14:51;;;;;;;;;;;;;;;18.68;48.01;101438.06;5168242;27;19923;-56
2023/01/06 03:17:17;;;;;;;;;;;;;;;18.69;48.08;101436.13;5168152;27;19923;-56
2023/01/06 03:19:42;;;;;;;;;;;;;;;18.69;47.98;101437.00;5168146;27;19933;-56
2023/01/06 03:22:08;;;;;;;;;;;;;;;18.69;47.96;101433.38;5168321;27;20287;-56
2023/01/06 03:24:34;;;;;;;;;;;;;;;18.68;47.97;101438.06;5157994;27;20025;-56
2023/01/06 03:27:00;;;;;;;;;;;;;;;18.69;48.06;101433.38;5163338;27;19954;-56
2023/01/06 03:29:26;;;;;;;;;;;;;;;18.68;48.07;101427.03;5132604;27;19930;-56
2023/01/06 03:31:57;;;;;;;;;;;;;;;18.69;48.28;101430.63;5146814;27;19923;-56
2023/01/06 03:34:43;;;;;;;;;;;;;;;18.68;48.20;101429.78;5147287;27;19931;-56
2023/01/06 03:39:54;;;;;;;;;;;;;;;18.69;48.27;101416.81;5190550;27;19925;-56
2023/01/06 03:45:14;;;;;;;;;;;;;;;18.68;48.30;101402.22;5159382;27;19999;-56
2023/01/06 03:47:41;;;;;;;;;;;;;;;18.68;48.23;101393.94;5189778;27;20319;-56
2023/01/06 03:50:09;;;;;;;;;;;;;;;18.69;47.97;101398.38;5190112;27;20414;-56
2023/01/06 03:52:36;;;;;;;;;;;;;;;18.69;47.96;101397.50;5189762;27;20606;-57
2023/01/06 03:55:03;;;;;;;;;;;;;;;18.68;47.98;101391.16;5189566;27;19926;-56
2023/01/06 03:57:33;;;;;;;;;;;;;;;18.69;48.02;101397.50;5189594;27;20282;-56
2023/01/06 04:00:00;;;;;;;;;;;;;;;18.68;48.01;101396.69;5170140;27;19934;-56
2023/01/06 04:02:26;;;;;;;;;;;;;;;18.69;48.21;101392.00;5186045;27;19968;-56
2023/01/06 04:05:00;;;;;;;;;;;;;;;18.69;47.99;101394.75;5167749;27;19927;-56
2023/01/06 04:07:25;;;;;;;;;;;;;;;18.68;48.08;101393.94;5168334;27;20020;-56
2023/01/06 04:09:51;;;;;;;;;;;;;;;18.69;48.00;101397.50;5168639;27;19926;-56
2023/01/06 04:12:47;;;;;;;;;;;;;;;18.69;47.98;101392.00;5168454;27;20386;-56
2023/01/06 04:15:02;;;;;;;;;;;;;;;18.69;48.14;101392.84;5152788;27;19966;-56
2023/01/06 04:17:27;;;;;;;;;;;;;;;18.69;48.28;101383.72;5149475;27;19966;-56
2023/01/06 04:19:53;;;;;;;;;;;;;;;18.69;48.00;101384.59;5168712;27;19946;-56
2023/01/06 04:22:18;;;;;;;;;;;;;;;18.69;48.18;101381.81;5168514;27;19923;-56
2023/01/06 04:24:44;;;;;;;;;;;;;;;18.70;48.26;101377.16;5168061;27;19958;-56
2023/01/06 04:27:10;;;;;;;;;;;;;;;18.69;48.29;101380.97;5167346;27;19930;-56
2023/01/06 04:29:35;;;;;;;;;;;;;;;18.69;48.32;101368.03;5169846;27;19923;-56
2023/01/06 04:32:01;;;;;;;;;;;;;;;18.68;48.00;101371.84;5168209;27;19930;-56
2023/01/06 04:34:26;;;;;;;;;;;;;;;18.69;48.26;101369.94;5168010;27;19923;-56
2023/01/06 04:36:52;;;;;;;;;;;;;;;18.69;47.94;101378.22;5152884;27;19927;-56
2023/01/06 04:39:17;;;;;;;;;;;;;;;18.69;48.20;101380.97;5146895;27;20283;-56
2023/01/06 04:41:43;;;;;;;;;;;;;;;18.70;48.33;101366.13;5147319;27;19923;-56
2023/01/06 04:44:08;;;;;;;;;;;;;;;18.69;48.10;101368.03;5147025;27;20367;-56
2023/01/06 04:46:34;;;;;;;;;;;;;;;18.69;48.17;101370.78;5147031;27;19934;-56
2023/01/06 04:49:00;;;;;;;;;;;;;;;18.69;48.33;101361.66;5146868;27;19980;-56
2023/01/06 04:51:25;;;;;;;;;;;;;;;18.69;47.97;101359.75;5114225;28;19946;-56
2023/01/06 04:53:51;;;;;;;;;;;;;;;18.68;48.23;101358.06;5132823;28;19923;-56
2023/01/06 04:56:16;;;;;;;;;;;;;;;18.69;47.98;101357.00;5132955;27;19927;-56
2023/01/06 04:58:42;;;;;;;;;;;;;;;18.69;48.01;101361.66;5140586;27;19981;-56
2023/01/06 05:01:08;;;;;;;;;;;;;;;18.70;48.29;101366.13;5153693;27;19926;-56
2023/01/06 05:03:34;;;;;;;;;;;;;;;18.69;48.32;101365.28;5134628;27;20363;-56
2023/01/06 05:06:01;;;;;;;;;;;;;;;18.68;47.99;101358.06;5145756;27;19935;-56
2023/01/06 05:08:26;;;;;;;;;;;;;;;18.68;47.98;101355.31;5114627;28;20412;-56
2023/01/06 05:10:57;;;;;;;;;;;;;;;18.69;48.11;101357.00;5132586;28;20480;-56
2023/01/06 05:13:23;;;;;;;;;;;;;;;18.69;48.15;101348.72;5133054;28;19963;-56
2023/01/06 05:15:48;;;;;;;;;;;;;;;18.70;48.31;101353.16;5132445;27;20276;-56
2023/01/06 05:18:14;;;;;;;;;;;;;;;18.70;48.23;101346.81;5132835;28;19923;-56
2023/01/06 05:20:40;;;;;;;;;;;;;;;18.69;48.09;101339.59;5132939;28;20276;-56
2023/01/06 05:23:05;;;;;;;;;;;;;;;18.69;48.31;101345.09;5132966;28;19927;-56
2023/01/06 05:25:31;;;;;;;;;;;;;;;18.69;48.10;101345.09;5135291;27;20367;-56
2023/01/06 05:27:56;;;;;;;;;;;;;;;18.69;48.01;101334.06;5153183;27;19971;-56
2023/01/06 05:30:22;;;;;;;;;;;;;;;18.69;48.43;101345.09;5152733;27;19935;-56
2023/01/06 05:32:47;;;;;;;;;;;;;;;18.70;48.32;101352.34;5153200;27;19933;-55
2023/01/06 05:35:13;;;;;;;;;;;;;;;18.69;48.31;101353.38;5152153;27;19930;-56
2023/01/06 05:37:39;;;;;;;;;;;;;;;18.70;48.00;101355.91;5132384;28;19924;-56
2023/01/06 05:40:04;;;;;;;;;;;;;;;18.70;48.28;101361.44;5132491;28;20127;-56
2023/01/06 05:42:30;;;;;;;;;;;;;;;18.69;48.33;101359.75;5132544;28;20333;-56
2023/01/06 05:44:55;;;;;;;;;;;;;;;18.70;47.97;101355.09;5131938;28;19977;-56
2023/01/06 05:47:21;;;;;;;;;;;;;;;18.69;47.87;101359.75;5132367;27;19946;-56
2023/01/06 05:49:46;;;;;;;;;;;;;;;18.69;48.14;101351.47;5132288;28;19935;-56
2023/01/06 05:52:12;;;;;;;;;;;;;;;18.69;48.00;101354.22;5132159;28;20498;-56
2023/01/06 05:54:39;;;;;;;;;;;;;;;18.70;48.02;101360.59;5132019;28;19931;-56
2023/01/06 05:57:05;;;;;;;;;;;;;;;18.69;48.01;101359.75;5132270;27;19955;-56
2023/01/06 05:59:31;;;;;;;;;;;;;;;18.70;48.01;101357.84;5146489;27;19974;-56
2023/01/06 06:01:56;;;;;;;;;;;;;;;18.69;48.15;101359.75;5151476;27;19927;-56
2023/01/06 06:04:22;;;;;;;;;;;;;;;18.70;48.29;101364.19;5152866;27;20652;-56
2023/01/06 06:06:47;;;;;;;;;;;;;;;18.70;48.28;101357.84;5138280;27;19953;-56
2023/01/06 06:09:13;;;;;;;;;;;;;;;18.70;48.35;101346.81;5131960;28;19923;-56
2023/01/06 06:11:38;;;;;;;;;;;;;;;18.70;48.00;101344.88;5131980;28;19924;-56
2023/01/06 06:14:05;;;;;;;;;;;;;;;18.70;48.21;101342.13;5131597;28;20291;-56
2023/01/06 06:16:30;;;;;;;;;;;;;;;18.70;48.04;101338.53;5112892;28;20248;-56
2023/01/06 06:18:56;;;;;;;;;;;;;;;18.70;48.06;101319.22;5131395;28;19930;-56
2023/01/06 06:21:23;;;;;;;;;;;;;;;18.69;48.16;101336.81;5131902;28;19931;-56
2023/01/06 06:23:50;;;;;;;;;;;;;;;18.69;48.11;101332.16;5131654;28;19963;-56
2023/01/06 06:26:16;;;;;;;;;;;;;;;18.70;47.99;101333.84;5140964;27;19930;-56
2023/01/06 06:28:42;;;;;;;;;;;;;;;18.70;48.25;101324.75;5154250;27;19931;-56
2023/01/06 06:31:08;;;;;;;;;;;;;;;18.70;48.07;101313.72;5151928;27;19952;-56
2023/01/06 06:33:34;;;;;;;;;;;;;;;18.70;48.22;101308.19;5152227;27;19927;-56
2023/01/06 06:36:00;;;;;;;;;;;;;;;18.69;48.32;101321.13;5144430;27;20264;-56
2023/01/06 06:38:25;;;;;;;;;;;;;;;18.69;48.20;101321.13;5113021;28;20019;-56
2023/01/06 06:40:51;;;;;;;;;;;;;;;18.70;48.34;101322.81;5131621;28;19924;-56
2023/01/06 06:43:16;;;;;;;;;;;;;;;18.70;48.32;101324.75;5131500;28;20264;-56
2023/01/06 06:45:43;;;;;;;;;;;;;;;18.70;48.26;101325.56;5131305;27;19931;-56
2023/01/06 06:48:09;;;;;;;;;;;;;;;18.70;48.08;101331.09;5131426;28;19924;-56
2023/01/06 06:50:34;;;;;;;;;;;;;;;18.69;47.96;101332.16;5131213;28;20319;-56
2023/01/06 06:53:00;;;;;;;;;;;;;;;18.69;48.03;101332.16;5131160;28;19931;-56
2023/01/06 06:55:26;;;;;;;;;;;;;;;18.70;48.29;101336.59;5130854;27;19924;-56
2023/01/06 06:57:51;;;;;;;;;;;;;;;18.70;48.01;101341.28;5131776;27;19924;-56
2023/01/06 07:00:17;;;;;;;;;;;;;;;18.69;48.00;101337.69;5151622;27;20027;-56
2023/01/06 07:02:43;;;;;;;;;;;;;;;18.70;48.00;101331.09;5151601;27;19927;-56
2023/01/06 07:05:08;;;;;;;;;;;;;;;18.70;48.22;101331.09;5151478;27;20401;-56
2023/01/06 07:07:34;;;;;;;;;;;;;;;18.70;48.24;101325.56;5131002;27;19972;-56
2023/01/06 07:09:59;;;;;;;;;;;;;;;18.69;48.23;101328.53;5130996;28;19924;-56
2023/01/06 07:12:25;;;;;;;;;;;;;;;18.70;47.97;101324.75;5130739;27;19972;-56
2023/01/06 07:14:51;;;;;;;;;;;;;;;18.70;48.19;101327.50;5130844;28;19923;-56
2023/01/06 07:17:16;;;;;;;;;;;;;;;18.70;47.96;101331.09;5131148;27;19923;-56
2023/01/06 07:19:42;;;;;;;;;;;;;;;18.70;48.36;101328.31;5131041;28;19931;-56
2023/01/06 07:22:07;;;;;;;;;;;;;;;18.71;48.16;101329.16;5130920;28;19953;-56
2023/01/06 07:24:33;;;;;;;;;;;;;;;18.70;48.11;101320.06;5130098;28;19927;-56
2023/01/06 07:26:58;;;;;;;;;;;;;;;18.71;47.96;101320.88;5146105;27;19971;-56
2023/01/06 07:29:24;;;;;;;;;;;;;;;18.71;48.16;101326.41;5153327;27;19923;-56
2023/01/06 07:31:50;;;;;;;;;;;;;;;18.70;48.29;101322.81;5150968;27;19971;-55
2023/01/06 07:34:15;;;;;;;;;;;;;;;18.70;48.27;101331.09;5151216;27;20382;-56
2023/01/06 07:36:41;;;;;;;;;;;;;;;18.70;48.15;101331.09;5137975;27;19923;-56
2023/01/06 07:39:06;;;;;;;;;;;;;;;18.70;48.17;101331.09;5130791;28;20093;-56
2023/01/06 07:41:32;;;;;;;;;;;;;;;18.70;48.01;101324.75;5130483;28;19972;-56
2023/01/06 07:43:57;;;;;;;;;;;;;;;18.70;48.01;101333.84;5130461;28;20387;-57
2023/01/06 07:46:23;;;;;;;;;;;;;;;18.70;48.06;101328.31;5130485;27;19931;-56
2023/01/06 07:48:49;;;;;;;;;;;;;;;18.70;48.10;101324.75;5130685;28;20273;-56
2023/01/06 07:51:14;;;;;;;;;;;;;;;18.70;48.22;101333.84;5130397;28;19924;-56
2023/01/06 07:53:40;;;;;;;;;;;;;;;18.70;48.00;101333.84;5130216;28;19950;-56
2023/01/06 07:56:05;;;;;;;;;;;;;;;18.71;48.01;101334.69;5137995;27;20263;-56
2023/01/06 07:58:31;;;;;;;;;;;;;;;18.71;48.31;101348.47;5151083;27;19930;-56
2023/01/06 08:00:56;;;;;;;;;;;;;;;18.70;48.11;101344.06;5150986;27;20298;-56
2023/01/06 08:03:22;;;;;;;;;;;;;;;18.70;47.99;101342.13;5151025;27;19923;-56
2023/01/06 08:05:48;;;;;;;;;;;;;;;18.70;48.06;101352.34;5150528;27;20338;-56
2023/01/06 08:08:13;;;;;;;;;;;;;;;18.71;48.29;101345.72;5150871;27;19927;-56
2023/01/06 08:10:39;;;;;;;;;;;;;;;18.71;48.36;101340.19;5151034;27;19923;-56
2023/01/06 08:13:05;;;;;;;;;;;;;;;18.70;48.10;101347.66;5132455;27;19923;-56
2023/01/06 08:15:30;;;;;;;;;;;;;;;18.70;48.01;101341.28;5150450;27;19923;-56
2023/01/06 08:17:56;;;;;;;;;;;;;;;18.70;48.00;101352.34;5150955;27;20278;-56
2023/01/06 08:20:22;;;;;;;;;;;;;;;18.70;48.00;101352.34;5150958;27;19930;-56
2023/01/06 08:22:47;;;;;;;;;;;;;;;18.70;48.02;101355.09;5131702;27;19942;-56
2023/01/06 08:25:13;;;;;;;;;;;;;;;18.71;48.35;101356.75;5151107;27;19934;-56
2023/01/06 08:27:38;;;;;;;;;;;;;;;18.71;48.22;101359.50;5154818;27;19955;-56
2023/01/06 08:30:04;;;;;;;;;;;;;;;18.70;48.14;101368.88;5155157;27;20383;-56
2023/01/06 08:32:30;;;;;;;;;;;;;;;18.71;47.98;101363.09;5154301;27;19923;-56
2023/01/06 08:34:55;;;;;;;;;;;;;;;18.70;48.08;101361.44;5135545;27;20340;-56
2023/01/06 08:37:21;;;;;;;;;;;;;;;18.71;47.98;101373.31;5154121;27;19931;-56
2023/01/06 08:39:46;;;;;;;;;;;;;;;18.72;48.13;101373.03;5154149;27;19976;-56
2023/01/06 08:42:12;;;;;;;;;;;;;;;18.72;48.34;101374.94;5154186;27;19923;-56
2023/01/06 08:44:38;;;;;;;;;;;;;;;18.71;48.33;101378.81;5153964;27;20249;-56
2023/01/06 08:47:03;;;;;;;;;;;;;;;18.70;48.32;101380.75;5153867;27;19979;-56
2023/01/06 08:49:29;;;;;;;;;;;;;;;18.71;48.33;101387.09;5154093;27;20450;-56
2023/01/06 08:51:54;;;;;;;;;;;;;;;18.71;48.15;101390.69;5153838;27;20298;-56
2023/01/06 08:54:20;;;;;;;;;;;;;;;18.70;47.98;101394.53;5153351;27;19923;-56
2023/01/06 08:56:45;;;;;;;;;;;;;;;18.71;48.33;101401.72;5153743;27;20356;-56
2023/01/06 08:59:12;;;;;;;;;;;;;;;18.70;48.26;101402.81;5153503;27;19923;-56
2023/01/06 09:01:38;;;;;;;;;;;;;;;18.72;48.29;101408.06;5153589;27;19969;-56
2023/01/06 09:04:04;;;;;;;;;;;;;;;18.71;48.08;101401.72;5153716;27;19923;-56
2023/01/06 09:06:30;;;;;;;;;;;;;;;18.72;48.12;101408.06;5153612;27;20370;-56
2023/01/06 09:08:56;;;;;;;;;;;;;;;18.71;48.00;101409.16;5135192;27;19930;-56
2023/01/06 09:11:22;;;;;;;;;;;;;;;18.70;47.99;101405.59;5135212;27;19926;-56
2023/01/06 09:13:49;;;;;;;;;;;;;;;18.71;47.98;101410.00;5134996;27;19923;-56
2023/01/06 09:16:15;;;;;;;;;;;;;;;18.71;47.98;101409.16;5153211;27;20370;-56
2023/01/06 09:18:46;;;;;;;;;;;;;;;18.71;48.10;101412.75;5153493;27;19923;-56
2023/01/06 09:21:11;;;;;;;;;;;;;;;18.71;48.31;101414.69;5153445;27;19923;-56
2023/01/06 09:23:37;;;;;;;;;;;;;;;18.71;48.21;101420.19;5153263;27;19934;-56
2023/01/06 09:26:03;;;;;;;;;;;;;;;18.70;47.99;101424.88;5148298;27;20348;-56
2023/01/06 09:28:28;;;;;;;;;;;;;;;18.71;48.32;101431.25;5155397;27;19934;-56
2023/01/06 09:30:54;;;;;;;;;;;;;;;18.71;48.30;101439.50;5153204;27;19926;-56
2023/01/06 09:33:19;;;;;;;;;;;;;;;18.71;48.31;101445.84;5153340;27;20252;-56
2023/01/06 09:35:45;;;;;;;;;;;;;;;18.71;47.99;101445.03;5151609;27;19930;-56
2023/01/06 09:38:11;;;;;;;;;;;;;;;18.71;48.33;101439.50;5153025;27;19924;-56
2023/01/06 09:40:43;;;;;;;;;;;;;;;18.71;48.03;101447.78;5134701;27;20008;-56
2023/01/06 09:43:14;;;;;;;;;;;;;;;18.71;47.97;101445.84;5153226;27;19954;-56
2023/01/06 09:45:42;;;;;;;;;;;;;;;18.71;48.22;101445.03;5152920;27;19958;-56
2023/01/06 09:48:10;;;;;;;;;;;;;;;18.72;47.99;101446.69;5153125;27;19923;-56
2023/01/06 09:50:37;;;;;;;;;;;;;;;18.71;48.30;101462.41;5153049;27;19923;-56
2023/01/06 09:53:11;;;;;;;;;;;;;;;18.70;48.29;101463.50;5153153;27;19927;-56
2023/01/06 09:55:38;;;;;;;;;;;;;;;18.70;48.15;101460.75;5148771;27;20011;-56
2023/01/06 09:58:05;;;;;;;;;;;;;;;18.71;48.29;101450.56;5134478;27;19934;-56
2023/01/06 10:00:36;;;;;;;;;;;;;;;18.71;48.00;101448.63;5134111;27;19938;-56
2023/01/06 10:03:01;;;;;;;;;;;;;;;18.71;48.08;101437.59;5134217;27;19923;-56
2023/01/06 10:05:28;;;;;;;;;;;;;;;18.71;47.98;101439.50;5152424;27;19930;-56
2023/01/06 10:07:59;;;;;;;;;;;;;;;18.72;47.96;101441.16;5152392;27;19923;-56
2023/01/06 10:10:28;;;;;;;;;;;;;;;18.72;48.11;101449.44;5134206;27;20019;-56
2023/01/06 10:13:03;;;;;;;;;;;;;;;18.71;48.06;101458.81;5152732;27;20344;-56
2023/01/06 10:15:48;;;;;;;;;;;;;;;18.71;48.14;101459.66;5152272;27;19927;-56
2023/01/06 10:18:18;;;;;;;;;;;;;;;18.72;48.31;101466.00;5136764;27;19923;-56
2023/01/06 10:20:48;;;;;;;;;;;;;;;18.71;48.17;101467.09;5152612;27;20371;-56
2023/01/06 10:23:21;;;;;;;;;;;;;;;18.71;47.96;101467.94;5152243;27;19970;-56
2023/01/06 10:25:52;;;;;;;;;;;;;;;18.71;47.97;101465.19;5152145;27;19999;-56
2023/01/06 10:28:24;;;;;;;;;;;;;;;18.70;48.02;101463.50;5135780;27;20043;-56
2023/01/06 10:30:50;;;;;;;;;;;;;;;18.72;48.08;101474.28;5133683;27;20355;-56
2023/01/06 10:33:20;;;;;;;;;;;;;;;18.72;48.04;101466.00;5133706;27;19999;-56
2023/01/06 10:35:46;;;;;;;;;;;;;;;18.72;48.23;101466.00;5146985;27;19942;-56
2023/01/06 10:38:11;;;;;;;;;;;;;;;18.71;48.14;101465.19;5148784;27;19923;-56
2023/01/06 10:40:37;;;;;;;;;;;;;;;18.71;48.01;101464.34;5152034;27;19945;-56
2023/01/06 10:43:05;;;;;;;;;;;;;;;18.71;48.35;101459.66;5151876;27;19923;-56
2023/01/06 10:45:46;;;;;;;;;;;;;;;18.73;48.07;101459.38;5148811;27;19931;-56
2023/01/06 10:48:12;;;;;;;;;;;;;;;18.72;48.31;101458.56;5130732;27;20363;-56
2023/01/06 10:50:38;;;;;;;;;;;;;;;18.72;48.09;101449.44;5112896;28;19966;-56
2023/01/06 10:53:04;;;;;;;;;;;;;;;18.72;47.98;101446.69;5131319;28;19927;-56
2023/01/06 10:58:09;;;;;;;;;;;;;;;18.73;48.24;101445.59;5189956;27;19925;-56
2023/01/06 11:00:35;;;;;;;;;;;;;;;18.71;48.23;101451.38;5171810;27;19944;-56
2023/01/06 11:03:02;;;;;;;;;;;;;;;18.72;48.14;101453.03;5141735;27;20010;-56
2023/01/06 11:05:47;;;;;;;;;;;;;;;18.72;48.13;101453.03;5132224;27;19972;-56
2023/01/06 11:08:13;;;;;;;;;;;;;;;18.73;48.13;101456.63;5147938;27;19927;-58
2023/01/06 11:10:42;;;;;;;;;;;;;;;18.72;48.29;101457.72;5129399;27;20295;-58
2023/01/06 11:13:19;;;;;;;;;;;;;;;18.72;48.00;101450.28;5148072;27;19954;-59
2023/01/06 11:15:45;;;;;;;;;;;;;;;18.73;48.28;101464.91;5128585;27;19931;-59
2023/01/06 11:18:19;;;;;;;;;;;;;;;18.72;48.03;101452.19;5147949;27;19924;-59
2023/01/06 11:20:50;;;;;;;;;;;;;;;18.72;48.27;101458.56;5129139;27;19968;-58
2023/01/06 11:23:20;;;;;;;;;;;;;;;18.72;48.08;101453.03;5129100;27;20014;-59
2023/01/06 11:25:58;;;;;;;;;;;;;;;18.72;47.96;101444.75;5147292;27;19955;-58
2023/01/06 11:28:24;;;;;;;;;;;;;;;18.73;48.36;101446.41;5147588;27;19927;-59
2023/01/06 11:30:51;;;;;;;;;;;;;;;18.73;48.05;101442.81;5147425;27;19952;-59
2023/01/06 11:33:18;;;;;;;;;;;;;;;18.71;48.31;101434.81;5128817;27;19967;-59
2023/01/06 11:35:44;;;;;;;;;;;;;;;18.72;48.31;101439.25;5147205;27;20390;-59
2023/01/06 11:38:13;;;;;;;;;;;;;;;18.72;48.00;101435.66;5147411;27;19923;-59
2023/01/06 11:40:39;;;;;;;;;;;;;;;18.72;47.96;101428.19;5147320;27;19970;-59
2023/01/06 11:43:06;;;;;;;;;;;;;;;18.72;48.05;101435.66;5147567;27;19923;-59
2023/01/06 11:45:34;;;;;;;;;;;;;;;18.72;48.01;101433.72;5146939;27;19924;-58
2023/01/06 11:48:00;;;;;;;;;;;;;;;18.70;48.00;101438.69;5128488;27;19931;-59
2023/01/06 11:50:25;;;;;;;;;;;;;;;18.72;48.38;101427.38;5147347;27;19924;-59
2023/01/06 11:52:59;;;;;;;;;;;;;;;18.72;48.12;101436.47;5146939;27;19931;-58
2023/01/06 11:55:26;;;;;;;;;;;;;;;18.71;48.30;101437.59;5146345;27;19924;-59
2023/01/06 11:58:00;;;;;;;;;;;;;;;18.71;48.27;101434.81;5147004;27;19955;-59
2023/01/06 12:00:31;;;;;;;;;;;;;;;18.72;48.04;101424.63;5146871;27;19934;-59
2023/01/06 12:03:17;;;;;;;;;;;;;;;18.72;48.03;101428.19;5147099;27;19923;-59
2023/01/06 12:05:48;;;;;;;;;;;;;;;18.72;48.30;101424.63;5131080;27;20002;-58
2023/01/06 12:08:14;;;;;;;;;;;;;;;18.71;48.24;101429.31;5140437;27;19934;-58
2023/01/06 12:10:40;;;;;;;;;;;;;;;18.72;48.35;101427.38;5132894;28;20256;-59
2023/01/06 12:13:07;;;;;;;;;;;;;;;18.72;47.99;101421.84;5132824;28;20421;-59
2023/01/06 12:15:32;;;;;;;;;;;;;;;18.72;48.35;101428.19;5132476;28;19962;-59
2023/01/06 12:18:00;;;;;;;;;;;;;;;18.73;48.00;101431.78;5132812;28;19958;-59
2023/01/06 12:20:28;;;;;;;;;;;;;;;18.72;48.39;101427.38;5114457;28;19923;-59
2023/01/06 12:22:57;;;;;;;;;;;;;;;18.72;48.18;101427.38;5133063;28;20372;-59
2023/01/06 12:25:25;;;;;;;;;;;;;;;18.73;48.37;101431.78;5132492;28;19930;-59
2023/01/06 12:27:52;;;;;;;;;;;;;;;18.73;48.30;101434.53;5114361;28;19930;-59
2023/01/06 12:30:21;;;;;;;;;;;;;;;18.72;48.14;101433.72;5114156;28;19927;-59
2023/01/06 12:32:48;;;;;;;;;;;;;;;18.73;48.35;101429.03;5113977;28;19954;-58
2023/01/06 12:35:17;;;;;;;;;;;;;;;18.72;48.04;101435.66;5114257;28;19959;-59
2023/01/06 12:37:44;;;;;;;;;;;;;;;18.73;48.03;101435.38;5132497;28;19923;-58
2023/01/06 12:40:13;;;;;;;;;;;;;;;18.73;48.28;101429.03;5132222;28;20272;-59
2023/01/06 12:42:48;;;;;;;;;;;;;;;18.72;48.26;101436.47;5132455;28;20359;-59
2023/01/06 12:45:15;;;;;;;;;;;;;;;18.72;48.25;101424.63;5113791;28;19934;-59
2023/01/06 12:47:56;;;;;;;;;;;;;;;18.72;48.04;101436.47;5132760;28;19923;-59